createdAt,value
2019-01-08T00:02:25.729Z,8.87
2019-01-08T00:04:55.416Z,8.84
2019-01-08T00:07:25.084Z,8.80
2019-01-08T00:09:54.775Z,8.79
2019-01-08T00:12:24.465Z,8.77
2019-01-08T00:14:54.129Z,8.72
2019-01-08T00:17:23.828Z,8.73
2019-01-08T00:19:53.506Z,8.70
2019-01-08T00:22:23.179Z,8.66
2019-01-08T00:24:52.935Z,8.66
2019-01-08T00:27:22.626Z,8.67
2019-01-08T00:29:52.404Z,8.67
2019-01-08T00:32:22.089Z,8.68
2019-01-08T00:34:51.756Z,8.70
2019-01-08T00:37:21.440Z,8.70
2019-01-08T00:39:51.111Z,8.71
2019-01-08T00:42:20.780Z,8.74
2019-01-08T00:44:50.444Z,8.71
2019-01-08T00:47:20.120Z,8.71
2019-01-08T00:49:49.797Z,8.73
2019-01-08T00:52:19.472Z,8.74
2019-01-08T00:54:49.161Z,8.72
2019-01-08T00:57:18.836Z,8.72
2019-01-08T00:59:48.507Z,8.72
2019-01-08T01:02:18.260Z,8.70
2019-01-08T01:04:47.935Z,8.68
2019-01-08T01:07:17.623Z,8.65
2019-01-08T01:09:47.809Z,8.68
2019-01-08T01:12:17.556Z,8.68
2019-01-08T01:14:47.243Z,8.67
2019-01-08T01:17:16.932Z,8.64
2019-01-08T01:19:46.679Z,8.59
2019-01-08T01:22:16.361Z,8.55
2019-01-08T01:24:46.031Z,8.55
2019-01-08T01:27:15.726Z,8.51
2019-01-08T01:29:45.877Z,8.50
2019-01-08T01:32:15.544Z,8.47
2019-01-08T01:34:45.223Z,8.46
2019-01-08T01:37:15.140Z,8.42
2019-01-08T01:39:44.816Z,8.37
2019-01-08T01:42:22.137Z,8.36
2019-01-08T01:44:51.818Z,8.36
2019-01-08T01:47:21.489Z,8.31
2019-01-08T01:49:51.163Z,8.26
2019-01-08T01:52:20.836Z,8.26
2019-01-08T01:54:50.757Z,8.22
2019-01-08T01:57:20.434Z,8.19
2019-01-08T01:59:50.108Z,8.14
2019-01-08T02:02:19.784Z,8.12
2019-01-08T02:04:49.548Z,8.07
2019-01-08T02:07:19.464Z,8.04
2019-01-08T02:09:49.132Z,8.04
2019-01-08T02:12:18.828Z,8.03
2019-01-08T02:14:48.505Z,8.01
2019-01-08T02:17:18.181Z,8.01
2019-01-08T02:19:47.856Z,8.01
2019-01-08T02:22:17.524Z,8.00
2019-01-08T02:24:47.214Z,8.01
2019-01-08T02:27:16.897Z,8.04
2019-01-08T02:29:46.581Z,8.07
2019-01-08T02:32:16.433Z,8.09
2019-01-08T02:34:46.111Z,8.10
2019-01-08T02:37:15.769Z,8.14
2019-01-08T02:39:45.433Z,8.19
2019-01-08T02:42:15.227Z,8.20
2019-01-08T02:44:45.037Z,8.22
2019-01-08T02:47:14.878Z,8.27
2019-01-08T02:49:44.571Z,8.28
2019-01-08T02:52:14.275Z,8.31
2019-01-08T02:54:43.955Z,8.31
2019-01-08T02:57:13.128Z,8.34
2019-01-08T02:59:42.807Z,8.34
2019-01-08T03:02:12.489Z,8.34
2019-01-08T03:04:42.184Z,8.34
2019-01-08T03:07:11.853Z,8.36
2019-01-08T03:09:41.541Z,8.35
2019-01-08T03:12:11.210Z,8.35
2019-01-08T03:14:40.912Z,8.38
2019-01-08T03:17:10.595Z,8.39
2019-01-08T03:19:40.275Z,8.40
2019-01-08T03:22:09.948Z,8.42
2019-01-08T03:24:39.641Z,8.45
2019-01-08T03:27:09.417Z,8.43
2019-01-08T03:29:39.091Z,8.44
2019-01-08T03:32:08.765Z,8.45
2019-01-08T03:34:38.425Z,8.48
2019-01-08T03:37:08.106Z,8.47
2019-01-08T03:39:38.036Z,8.48
2019-01-08T03:42:08.049Z,8.47
2019-01-08T03:44:37.718Z,8.52
2019-01-08T03:47:07.387Z,8.51
2019-01-08T03:49:37.081Z,8.46
2019-01-08T03:52:06.773Z,8.46
2019-01-08T03:54:36.450Z,8.50
2019-01-08T03:57:06.184Z,8.49
2019-01-08T03:59:41.919Z,8.46
2019-01-08T04:02:07.469Z,8.43
2019-01-08T04:04:37.159Z,8.43
2019-01-08T04:07:06.844Z,8.45
2019-01-08T04:09:36.532Z,8.45
2019-01-08T04:12:06.214Z,8.42
2019-01-08T04:14:35.896Z,8.39
2019-01-08T04:17:05.568Z,8.37
2019-01-08T04:19:35.480Z,8.39
2019-01-08T04:22:05.577Z,8.37
2019-01-08T04:24:35.503Z,8.32
2019-01-08T04:27:05.620Z,8.33
2019-01-08T04:29:35.539Z,8.28
2019-01-08T04:32:05.316Z,8.23
2019-01-08T04:34:35.234Z,8.20
2019-01-08T04:37:05.719Z,8.14
2019-01-08T04:39:35.631Z,8.17
2019-01-08T04:42:05.354Z,8.13
2019-01-08T04:44:35.007Z,8.18
2019-01-08T04:47:05.333Z,8.19
2019-01-08T04:49:35.017Z,8.19
2019-01-08T04:52:05.376Z,8.14
2019-01-08T04:54:35.041Z,8.18
2019-01-08T04:57:05.199Z,8.24
2019-01-08T04:59:35.119Z,8.20
2019-01-08T05:02:05.659Z,8.26
2019-01-08T05:04:35.340Z,8.17
2019-01-08T05:07:05.253Z,8.17
2019-01-08T05:09:34.952Z,8.10
2019-01-08T05:12:05.385Z,8.10
2019-01-08T05:14:35.067Z,8.19
2019-01-08T05:17:05.199Z,8.16
2019-01-08T05:19:34.864Z,8.12
2019-01-08T05:22:05.334Z,8.10
2019-01-08T05:24:35.018Z,8.04
2019-01-08T05:27:05.383Z,8.01
2019-01-08T05:29:35.336Z,7.99
2019-01-08T05:32:05.557Z,8.00
2019-01-08T05:34:35.237Z,8.00
2019-01-08T05:37:05.323Z,8.01
2019-01-08T05:39:35.243Z,8.01
2019-01-08T05:42:05.592Z,8.00
2019-01-08T05:44:35.511Z,8.00
2019-01-08T05:47:05.275Z,7.99
2019-01-08T05:49:35.184Z,8.00
2019-01-08T05:52:05.866Z,8.04
2019-01-08T05:54:35.556Z,8.05
2019-01-08T05:57:05.393Z,8.07
2019-01-08T05:59:35.309Z,8.05
2019-01-08T06:02:05.159Z,8.03
2019-01-08T06:04:34.833Z,8.05
2019-01-08T06:07:05.422Z,8.03
2019-01-08T06:09:35.105Z,8.03
2019-01-08T06:12:05.815Z,8.02
2019-01-08T06:14:36.814Z,8.07
2019-01-08T06:17:06.573Z,8.06
2019-01-08T06:19:36.477Z,8.07
2019-01-08T06:22:06.158Z,8.12
2019-01-08T06:24:35.843Z,8.06
2019-01-08T06:27:05.511Z,8.04
2019-01-08T06:29:35.427Z,8.07
2019-01-08T06:32:05.212Z,8.09
2019-01-08T06:34:34.900Z,8.06
2019-01-08T06:37:05.243Z,8.04
2019-01-08T06:39:34.924Z,8.06
2019-01-08T06:42:05.565Z,8.08
2019-01-08T06:44:35.238Z,8.11
2019-01-08T06:47:05.404Z,8.07
2019-01-08T06:49:35.079Z,8.03
2019-01-08T06:52:05.305Z,8.04
2019-01-08T06:54:34.985Z,8.06
2019-01-08T06:57:05.292Z,8.06
2019-01-08T06:59:34.980Z,8.00
2019-01-08T07:02:05.763Z,8.01
2019-01-08T07:04:35.451Z,8.01
2019-01-08T07:07:05.551Z,8.02
2019-01-08T07:09:35.479Z,8.04
2019-01-08T07:12:05.318Z,8.02
2019-01-08T07:14:35.016Z,7.99
2019-01-08T07:17:05.164Z,8.01
2019-01-08T07:19:34.859Z,7.97
2019-01-08T07:22:05.329Z,7.93
2019-01-08T07:24:35.733Z,7.95
2019-01-08T07:27:05.405Z,7.95
2019-01-08T07:29:35.097Z,7.94
2019-01-08T07:32:05.342Z,7.95
2019-01-08T07:34:35.017Z,7.95
2019-01-08T07:37:05.457Z,7.94
2019-01-08T07:39:35.130Z,7.94
2019-01-08T07:42:05.633Z,7.91
2019-01-08T07:44:35.313Z,7.95
2019-01-08T07:47:05.259Z,7.97
2019-01-08T07:49:34.935Z,7.96
2019-01-08T07:52:04.973Z,7.90
2019-01-08T07:54:35.878Z,7.86
2019-01-08T07:57:05.604Z,7.83
2019-01-08T07:59:35.276Z,7.74
2019-01-08T08:02:06.813Z,7.65
2019-01-08T08:04:36.541Z,7.62
2019-01-08T08:07:06.209Z,7.60
2019-01-08T08:09:35.964Z,7.63
2019-01-08T08:12:05.636Z,7.60
2019-01-08T08:14:35.309Z,7.57
2019-01-08T08:17:05.754Z,7.60
2019-01-08T08:19:35.411Z,7.62
2019-01-08T08:22:05.091Z,7.62
2019-01-08T08:24:35.080Z,7.62
2019-01-08T08:27:05.361Z,7.66
2019-01-08T08:29:35.024Z,7.66
2019-01-08T08:32:05.246Z,7.62
2019-01-08T08:34:34.917Z,7.64
2019-01-08T08:37:05.436Z,7.65
2019-01-08T08:39:35.106Z,7.63
2019-01-08T08:42:05.453Z,7.60
2019-01-08T08:44:35.132Z,7.62
2019-01-08T08:47:04.900Z,7.62
2019-01-08T08:49:34.590Z,7.56
2019-01-08T08:52:04.260Z,7.56
2019-01-08T08:54:34.008Z,7.56
2019-01-08T08:57:03.676Z,7.64
2019-01-08T08:59:33.589Z,7.70
2019-01-08T09:02:03.269Z,7.76
2019-01-08T09:04:32.928Z,7.79
2019-01-08T09:07:02.848Z,7.83
2019-01-08T09:09:32.534Z,7.86
2019-01-08T09:12:02.219Z,7.95
2019-01-08T09:14:31.875Z,7.97
2019-01-08T09:17:01.553Z,7.98
2019-01-08T09:19:31.233Z,8.05
2019-01-08T09:22:00.904Z,8.11
2019-01-08T09:24:30.595Z,8.16
2019-01-08T09:27:00.280Z,8.18
2019-01-08T09:29:31.736Z,8.26
2019-01-08T09:32:01.523Z,8.20
2019-01-08T09:34:31.218Z,8.28
2019-01-08T09:37:00.906Z,8.29
2019-01-08T09:39:30.572Z,8.35
2019-01-08T09:42:00.278Z,8.32
2019-01-08T09:44:29.948Z,8.34
2019-01-08T09:46:59.616Z,8.38
2019-01-08T09:49:29.307Z,8.45
2019-01-08T09:51:59.220Z,8.45
2019-01-08T09:54:28.890Z,8.51
2019-01-08T09:56:58.548Z,8.54
2019-01-08T09:59:28.233Z,8.52
2019-01-08T10:01:57.898Z,8.54
2019-01-08T10:04:27.571Z,8.51
2019-01-08T10:06:57.288Z,8.53
2019-01-08T10:09:27.210Z,8.58
2019-01-08T10:11:57.133Z,8.61
2019-01-08T10:14:27.060Z,8.64
2019-01-08T10:16:56.734Z,8.65
2019-01-08T10:19:26.411Z,8.60
2019-01-08T10:21:56.141Z,8.51
2019-01-08T10:24:25.762Z,8.43
2019-01-08T10:26:55.680Z,8.41
2019-01-08T10:29:25.360Z,8.37
2019-01-08T10:31:55.032Z,8.34
2019-01-08T10:34:24.716Z,8.32
2019-01-08T10:36:54.404Z,8.29
2019-01-08T10:39:24.107Z,8.30
2019-01-08T10:41:53.782Z,8.33
2019-01-08T10:44:23.469Z,8.35
2019-01-08T10:46:53.228Z,8.37
2019-01-08T10:49:22.916Z,8.40
2019-01-08T10:51:52.598Z,8.33
2019-01-08T10:54:22.284Z,8.35
2019-01-08T10:56:51.940Z,8.28
2019-01-08T10:59:21.612Z,8.27
2019-01-08T11:01:51.290Z,8.32
2019-01-08T11:04:20.964Z,8.36
2019-01-08T11:06:50.645Z,8.37
2019-01-08T11:09:20.328Z,8.45
2019-01-08T11:11:49.993Z,8.47
2019-01-08T11:14:19.662Z,8.57
2019-01-08T11:16:50.536Z,8.54
2019-01-08T11:19:20.287Z,8.56
2019-01-08T11:21:50.024Z,8.61
2019-01-08T11:24:19.694Z,8.56
2019-01-08T11:26:55.216Z,8.50
2019-01-08T11:29:24.884Z,8.52
2019-01-08T11:31:54.944Z,8.54
2019-01-08T11:34:24.878Z,8.60
2019-01-08T11:36:54.545Z,8.62
2019-01-08T11:39:24.225Z,8.69
2019-01-08T11:41:53.895Z,8.73
2019-01-08T11:44:24.430Z,8.70
2019-01-08T11:46:54.213Z,8.62
2019-01-08T11:49:24.125Z,8.60
2019-01-08T11:51:53.816Z,8.48
2019-01-08T11:54:23.496Z,8.38
2019-01-08T11:56:53.178Z,8.35
2019-01-08T11:59:22.852Z,8.30
2019-01-08T12:01:57.280Z,8.29
2019-01-08T12:04:23.998Z,8.31
2019-01-08T12:06:53.661Z,8.28
2019-01-08T12:09:23.350Z,8.27
2019-01-08T12:11:53.030Z,8.25
2019-01-08T12:14:22.698Z,8.27
2019-01-08T12:16:52.379Z,8.22
2019-01-08T12:19:22.122Z,8.24
2019-01-08T12:21:51.870Z,8.32
2019-01-08T12:24:21.534Z,8.41
2019-01-08T12:26:51.248Z,8.47
2019-01-08T12:29:20.938Z,8.51
2019-01-08T12:31:50.623Z,8.58
2019-01-08T12:34:20.308Z,8.62
2019-01-08T12:36:55.703Z,8.68
2019-01-08T12:39:25.368Z,8.72
2019-01-08T12:41:55.085Z,8.70
2019-01-08T12:44:24.997Z,8.67
2019-01-08T12:46:54.678Z,8.69
2019-01-08T12:49:24.360Z,8.76
2019-01-08T12:51:54.050Z,8.81
2019-01-08T12:54:23.746Z,8.88
2019-01-08T12:56:53.683Z,8.84
2019-01-08T12:59:23.364Z,8.87
2019-01-08T13:01:53.063Z,8.88
2019-01-08T13:04:22.732Z,8.97
2019-01-08T13:06:52.432Z,9.03
2019-01-08T13:09:22.102Z,9.02
2019-01-08T13:11:51.803Z,9.08
2019-01-08T13:14:21.488Z,9.14
2019-01-08T13:16:51.167Z,9.12
2019-01-08T13:19:21.310Z,9.05
2019-01-08T13:21:51.245Z,8.83
2019-01-08T13:24:20.962Z,8.51
2019-01-08T13:26:50.649Z,8.18
2019-01-08T13:29:20.331Z,7.92
2019-01-08T13:31:50.003Z,7.78
2019-01-08T13:34:19.687Z,7.66
2019-01-08T13:36:49.363Z,7.53
2019-01-08T13:39:19.053Z,7.45
2019-01-08T13:41:48.719Z,7.52
2019-01-08T13:44:18.396Z,7.55
2019-01-08T13:46:48.087Z,7.60
2019-01-08T13:49:17.775Z,7.66
2019-01-08T13:51:47.480Z,7.67
2019-01-08T13:54:17.161Z,7.51
2019-01-08T13:56:46.846Z,7.32
2019-01-08T13:59:16.528Z,7.21
2019-01-08T14:01:46.198Z,7.15
2019-01-08T14:04:16.120Z,7.11
2019-01-08T14:06:45.817Z,7.12
2019-01-08T14:09:16.454Z,7.13
2019-01-08T14:11:46.254Z,7.22
2019-01-08T14:14:15.868Z,7.30
2019-01-08T14:16:45.709Z,7.31
2019-01-08T14:19:15.697Z,7.36
2019-01-08T14:21:45.445Z,7.47
2019-01-08T14:24:15.135Z,7.53
2019-01-08T14:26:44.823Z,7.58
2019-01-08T14:29:14.513Z,7.58
2019-01-08T14:31:44.189Z,7.63
2019-01-08T14:34:13.939Z,7.65
2019-01-08T14:36:43.864Z,7.66
2019-01-08T14:39:13.549Z,7.69
2019-01-08T14:41:43.221Z,7.72
2019-01-08T14:44:12.876Z,7.70
2019-01-08T14:46:42.545Z,7.78
2019-01-08T14:49:12.233Z,7.78
2019-01-08T14:51:41.995Z,7.84
2019-01-08T14:54:11.664Z,7.82
2019-01-08T14:56:41.412Z,7.82
2019-01-08T14:59:11.097Z,7.84
2019-01-08T15:01:40.764Z,7.81
2019-01-08T15:04:10.441Z,7.90
2019-01-08T15:06:40.129Z,7.97
2019-01-08T15:09:09.800Z,8.00
2019-01-08T15:11:39.500Z,8.02
2019-01-08T15:14:09.171Z,8.02
2019-01-08T15:16:38.835Z,8.08
2019-01-08T15:19:08.572Z,8.06
2019-01-08T15:21:38.238Z,8.07
2019-01-08T15:24:07.920Z,8.01
2019-01-08T15:26:37.588Z,7.95
2019-01-08T15:29:07.280Z,7.97
2019-01-08T15:31:36.957Z,8.06
2019-01-08T15:34:06.734Z,7.93
2019-01-08T15:36:36.519Z,7.98
2019-01-08T15:39:17.314Z,7.96
2019-01-08T15:41:46.992Z,7.86
2019-01-08T15:44:16.679Z,7.79
2019-01-08T15:46:46.459Z,7.77
2019-01-08T15:49:16.151Z,7.75
2019-01-08T15:51:46.041Z,7.86
2019-01-08T15:54:15.726Z,7.81
2019-01-08T15:56:45.487Z,7.81
2019-01-08T15:59:15.160Z,7.83
2019-01-08T16:01:44.945Z,7.76
2019-01-08T16:04:14.746Z,7.81
2019-01-08T16:06:44.469Z,7.76
2019-01-08T16:09:14.151Z,7.77
2019-01-08T16:11:43.818Z,7.80
2019-01-08T16:14:13.505Z,7.84
2019-01-08T16:16:43.484Z,7.84
2019-01-08T16:19:13.648Z,7.69
2019-01-08T16:21:43.586Z,7.66
2019-01-08T16:24:13.248Z,7.57
2019-01-08T16:26:42.916Z,7.55
2019-01-08T16:29:12.586Z,7.52
2019-01-08T16:31:42.270Z,7.49
2019-01-08T16:34:11.944Z,7.52
2019-01-08T16:36:48.358Z,7.55
2019-01-08T16:39:18.203Z,7.57
2019-01-08T16:41:48.134Z,7.69
2019-01-08T16:44:17.830Z,7.66
2019-01-08T16:46:47.513Z,7.44
2019-01-08T16:49:17.177Z,7.28
2019-01-08T16:51:46.841Z,7.17
2019-01-08T16:54:17.749Z,7.19
2019-01-08T16:56:47.421Z,7.19
2019-01-08T16:59:17.341Z,7.15
2019-01-08T17:01:47.018Z,7.11
2019-01-08T17:04:16.708Z,7.00
2019-01-08T17:06:46.380Z,6.99
2019-01-08T17:09:16.134Z,6.92
2019-01-08T17:11:45.810Z,6.83
2019-01-08T17:14:15.469Z,6.76
2019-01-08T17:16:45.163Z,6.66
2019-01-08T17:19:14.852Z,6.63
2019-01-08T17:21:44.527Z,6.71
2019-01-08T17:24:14.197Z,6.69
2019-01-08T17:26:43.878Z,6.68
2019-01-08T17:29:13.616Z,6.67
2019-01-08T17:31:43.279Z,6.68
2019-01-08T17:34:12.956Z,6.62
2019-01-08T17:36:42.629Z,6.67
2019-01-08T17:39:18.228Z,6.66
2019-01-08T17:41:53.841Z,6.61
2019-01-08T17:44:23.575Z,6.64
2019-01-08T17:46:53.235Z,6.60
2019-01-08T17:49:22.923Z,6.62
2019-01-08T17:51:52.816Z,6.62
2019-01-08T17:54:22.556Z,6.64
2019-01-08T17:56:52.486Z,6.72
2019-01-08T17:59:22.614Z,6.72
2019-01-08T18:01:57.380Z,6.72
2019-01-08T18:04:27.135Z,6.79
2019-01-08T18:06:56.796Z,6.80
2019-01-08T18:09:26.467Z,6.75
2019-01-08T18:11:56.288Z,6.72
2019-01-08T18:14:26.035Z,6.74
2019-01-08T18:16:56.680Z,6.62
2019-01-08T18:19:26.583Z,6.65
2019-01-08T18:21:56.332Z,6.70
2019-01-08T18:24:26.004Z,6.69
2019-01-08T18:26:55.673Z,6.76
2019-01-08T18:29:25.357Z,6.73
2019-01-08T18:31:55.504Z,6.73
2019-01-08T18:34:26.147Z,6.76
2019-01-08T18:36:55.830Z,6.79
2019-01-08T18:39:25.496Z,6.72
2019-01-08T18:41:55.661Z,6.65
2019-01-08T18:44:25.338Z,6.58
2019-01-08T18:46:55.127Z,6.54
2019-01-08T18:49:31.163Z,6.45
2019-01-08T18:52:00.832Z,6.40
2019-01-08T18:54:30.568Z,6.42
2019-01-08T18:57:00.242Z,6.39
2019-01-08T18:59:29.928Z,6.41
2019-01-08T19:01:59.617Z,6.42
2019-01-08T19:04:29.301Z,6.47
2019-01-08T19:06:58.968Z,6.54
2019-01-08T19:09:36.421Z,6.56
2019-01-08T19:12:11.214Z,6.60
2019-01-08T19:14:56.527Z,6.51
2019-01-08T19:17:26.204Z,6.53
2019-01-08T19:19:55.878Z,6.48
2019-01-08T19:22:25.620Z,6.52
2019-01-08T19:24:55.376Z,6.55
2019-01-08T19:27:25.138Z,6.55
2019-01-08T19:29:54.840Z,6.52
2019-01-08T19:32:24.513Z,6.53
2019-01-08T19:34:54.195Z,6.54
2019-01-08T19:37:23.865Z,6.57
2019-01-08T19:39:53.622Z,6.54
2019-01-08T19:42:23.315Z,6.55
2019-01-08T19:44:52.977Z,6.52
2019-01-08T19:47:22.640Z,6.52
2019-01-08T19:49:52.308Z,6.55
2019-01-08T19:52:21.998Z,6.55
2019-01-08T19:54:51.680Z,6.51
2019-01-08T19:57:22.731Z,6.52
2019-01-08T19:59:52.406Z,6.49
2019-01-08T20:02:22.070Z,6.45
2019-01-08T20:04:52.727Z,6.45
2019-01-08T20:07:22.407Z,6.44
2019-01-08T20:09:52.323Z,6.45
2019-01-08T20:12:22.001Z,6.48
2019-01-08T20:14:51.669Z,6.51
2019-01-08T20:17:21.387Z,6.47
2019-01-08T20:19:51.112Z,6.44
2019-01-08T20:22:20.807Z,6.44
2019-01-08T20:24:50.477Z,6.42
2019-01-08T20:27:20.149Z,6.42
2019-01-08T20:29:50.067Z,6.40
2019-01-08T20:32:19.748Z,6.36
2019-01-08T20:34:49.451Z,6.27
2019-01-08T20:37:19.132Z,6.24
2019-01-08T20:39:49.646Z,6.15
2019-01-08T20:42:19.391Z,6.09
2019-01-08T20:44:49.066Z,6.06
2019-01-08T20:47:18.740Z,6.06
2019-01-08T20:49:48.496Z,6.02
2019-01-08T20:52:18.168Z,6.03
2019-01-08T20:54:47.840Z,6.03
2019-01-08T20:57:17.546Z,6.09
2019-01-08T20:59:47.231Z,6.09
2019-01-08T21:02:16.920Z,6.08
2019-01-08T21:04:46.670Z,6.07
2019-01-08T21:07:16.356Z,6.11
2019-01-08T21:09:46.062Z,6.13
2019-01-08T21:12:15.868Z,6.10
2019-01-08T21:14:45.541Z,6.10
2019-01-08T21:17:15.200Z,6.07
2019-01-08T21:19:44.879Z,6.05
2019-01-08T21:22:14.542Z,6.07
2019-01-08T21:24:45.182Z,6.05
2019-01-08T21:27:14.859Z,6.04
2019-01-08T21:29:44.783Z,6.06
2019-01-08T21:32:14.455Z,6.00
2019-01-08T21:34:44.749Z,5.93
2019-01-08T21:37:14.385Z,5.89
2019-01-08T21:39:44.135Z,5.84
2019-01-08T21:42:13.872Z,5.83
2019-01-08T21:44:43.552Z,5.81
2019-01-08T21:47:13.221Z,5.77
2019-01-08T21:49:43.380Z,5.77
2019-01-08T21:52:13.053Z,5.78
2019-01-08T21:54:42.717Z,5.79
2019-01-08T21:57:12.384Z,5.82
2019-01-08T21:59:42.207Z,5.87
2019-01-08T22:02:11.941Z,5.87
2019-01-08T22:04:41.696Z,5.87
2019-01-08T22:07:11.363Z,5.87
2019-01-08T22:09:41.200Z,5.92
2019-01-08T22:12:10.954Z,5.86
2019-01-08T22:14:40.625Z,5.83
2019-01-08T22:17:10.290Z,5.85
2019-01-08T22:19:40.115Z,5.87
2019-01-08T22:22:09.791Z,5.82
2019-01-08T22:24:39.455Z,5.83
2019-01-08T22:27:09.124Z,5.76
2019-01-08T22:29:38.779Z,5.82
2019-01-08T22:32:08.514Z,5.82
2019-01-08T22:34:38.258Z,5.82
2019-01-08T22:37:08.290Z,5.83
2019-01-08T22:39:37.991Z,5.83
2019-01-08T22:42:07.722Z,5.84
2019-01-08T22:44:37.419Z,5.76
2019-01-08T22:47:07.095Z,5.72
2019-01-08T22:49:40.533Z,5.78
2019-01-08T22:52:10.689Z,5.81
2019-01-08T22:54:40.360Z,5.80
2019-01-08T22:57:10.098Z,5.74
2019-01-08T22:59:39.771Z,5.63
2019-01-08T23:02:09.596Z,5.48
2019-01-08T23:04:39.304Z,5.40
2019-01-08T23:07:08.970Z,5.34
2019-01-08T23:09:38.724Z,5.33
2019-01-08T23:12:09.678Z,5.25
2019-01-08T23:14:39.408Z,5.24
2019-01-08T23:17:09.085Z,5.25
2019-01-08T23:19:38.751Z,5.23
2019-01-08T23:22:08.417Z,5.29
2019-01-08T23:24:38.095Z,5.35
2019-01-08T23:27:07.767Z,5.40
2019-01-08T23:29:37.509Z,5.45
2019-01-08T23:32:07.244Z,5.48
2019-01-08T23:34:37.879Z,5.46
2019-01-08T23:37:07.563Z,5.49
2019-01-08T23:39:37.231Z,5.51
2019-01-08T23:42:06.990Z,5.56
2019-01-08T23:44:36.737Z,5.57
2019-01-08T23:47:06.486Z,5.60
2019-01-08T23:49:36.158Z,5.61
2019-01-08T23:52:18.108Z,5.57
2019-01-08T23:54:49.439Z,5.57
2019-01-08T23:57:20.150Z,5.67
2019-01-08T23:59:49.891Z,5.66
